This is the latest recevied weather packets stored in our database for station/object K7TSD. If no packets are shown the sender has not sent any weather packets the latest 10 day(s).
| Time | Temp. | Humidity | Pressure | Rain* | Wind** | Luminosity | Snow |
|---|---|---|---|---|---|---|---|
| 1778129153 | 2.78° C | 59% | 1008.6 hPa | 0 mm | - | 0 W/m² | - |
| 1778128851 | 3.33° C | 57% | 1008.7 hPa | 0 mm | - | 0 W/m² | - |
| 1778128546 | 2.78° C | 57% | 1008.6 hPa | 0 mm | - | 0 W/m² | - |
| 1778128244 | 3.33° C | 58% | 1008.5 hPa | 0 mm | - | 0 W/m² | - |
| 1778127939 | 3.33° C | 55% | 1008.7 hPa | 0 mm | - | 0 W/m² | - |
| 1778127635 | 3.89° C | 57% | 1008.7 hPa | 0 mm | - | 0 W/m² | - |
| 1778127333 | 3.33° C | 57% | 1008.7 hPa | 0 mm | - | 0 W/m² | - |
| 1778127029 | 3.89° C | 56% | 1008.6 hPa | 0 mm | - | 0 W/m² | - |
| 1778126726 | 2.78° C | 58% | 1008.5 hPa | 0 mm | - | 0 W/m² | - |
| 1778126421 | 4.44° C | 58% | 1008.9 hPa | 0 mm | - | 0 W/m² | - |
| 1778126118 | 3.89° C | 56% | 1008.6 hPa | 0 mm | - | 0 W/m² | - |
| 1778125815 | 2.78° C | 62% | 1008.7 hPa | 0 mm | - | 0 W/m² | - |
| 1778125512 | 2.78° C | 63% | 1008.7 hPa | 0 mm | - | 0 W/m² | - |
| 1778125209 | 3.33° C | 59% | 1008.7 hPa | 0 mm | - | 0 W/m² | - |
| 1778124907 | 3.89° C | 54% | 1008.5 hPa | 0 mm | - | 0 W/m² | - |
| 1778124604 | 3.89° C | 55% | 1008.5 hPa | 0 mm | - | 0 W/m² | - |
| 1778124301 | 5° C | 53% | 1008.8 hPa | 0 mm | - | 0 W/m² | - |
| 1778123997 | 5.56° C | 55% | 1009.1 hPa | 0 mm | - | 0 W/m² | - |
| 1778123693 | 6.11° C | 48% | 1008.6 hPa | 0 mm | - | 0 W/m² | - |
| 1778123390 | 5.56° C | 52% | 1008.6 hPa | 0 mm | - | 0 W/m² | - |
| 1778123087 | 3.89° C | 54% | 1008.8 hPa | 0 mm | - | 0 W/m² | - |
| 1778122785 | 5.56° C | 54% | 1008.7 hPa | 0 mm | - | 0 W/m² | - |
| 1778122482 | 3.89° C | 59% | 1008.5 hPa | 0 mm | - | 0 W/m² | - |
| 1778122180 | 4.44° C | 58% | 1008.7 hPa | 0 mm | - | 0 W/m² | - |
| 1778121877 | 4.44° C | 57% | 1008.6 hPa | 0 mm | - | 0 W/m² | - |
* Rain latest hour (hover to see other rain measurements)
** Current wind speed in m/s (hover to see current wind gust speed)